sensor_id;sensor_type;location;lat;lon;timestamp;P1;durP1;ratioP1;P2;durP2;ratioP2
5967;SDS011;3010;51.028;4.170;2022-07-06T00:01:53;7.23;;;6.53;;
5967;SDS011;3010;51.028;4.170;2022-07-06T00:04:20;6.90;;;6.30;;
5967;SDS011;3010;51.028;4.170;2022-07-06T00:06:47;7.23;;;6.50;;
5967;SDS011;3010;51.028;4.170;2022-07-06T00:09:13;10.47;;;7.50;;
5967;SDS011;3010;51.028;4.170;2022-07-06T00:11:40;11.63;;;7.57;;
5967;SDS011;3010;51.028;4.170;2022-07-06T00:14:07;7.73;;;7.13;;
5967;SDS011;3010;51.028;4.170;2022-07-06T00:16:33;11.03;;;7.50;;
5967;SDS011;3010;51.028;4.170;2022-07-06T00:19:00;8.27;;;7.20;;
5967;SDS011;3010;51.028;4.170;2022-07-06T00:21:26;9.47;;;7.13;;
5967;SDS011;3010;51.028;4.170;2022-07-06T00:23:53;10.13;;;8.93;;
5967;SDS011;3010;51.028;4.170;2022-07-06T00:26:19;12.47;;;8.03;;
5967;SDS011;3010;51.028;4.170;2022-07-06T00:28:46;8.83;;;7.97;;
5967;SDS011;3010;51.028;4.170;2022-07-06T00:31:12;11.33;;;8.43;;
5967;SDS011;3010;51.028;4.170;2022-07-06T00:33:39;8.60;;;7.70;;
5967;SDS011;3010;51.028;4.170;2022-07-06T00:36:06;10.67;;;7.77;;
5967;SDS011;3010;51.028;4.170;2022-07-06T00:38:32;9.37;;;7.57;;
5967;SDS011;3010;51.028;4.170;2022-07-06T00:40:59;9.80;;;7.10;;
5967;SDS011;3010;51.028;4.170;2022-07-06T00:43:25;10.07;;;6.60;;
5967;SDS011;3010;51.028;4.170;2022-07-06T00:45:52;8.30;;;6.30;;
5967;SDS011;3010;51.028;4.170;2022-07-06T00:48:19;8.97;;;8.07;;
5967;SDS011;3010;51.028;4.170;2022-07-06T00:50:45;8.23;;;7.43;;
5967;SDS011;3010;51.028;4.170;2022-07-06T00:53:12;7.27;;;6.60;;
5967;SDS011;3010;51.028;4.170;2022-07-06T00:55:38;7.13;;;6.53;;
5967;SDS011;3010;51.028;4.170;2022-07-06T00:58:05;8.20;;;7.33;;
5967;SDS011;3010;51.028;4.170;2022-07-06T01:00:32;9.85;;;7.32;;
5967;SDS011;3010;51.028;4.170;2022-07-06T01:02:58;9.02;;;8.30;;
5967;SDS011;3010;51.028;4.170;2022-07-06T01:05:25;10.27;;;7.50;;
5967;SDS011;3010;51.028;4.170;2022-07-06T01:07:52;9.53;;;6.90;;
5967;SDS011;3010;51.028;4.170;2022-07-06T01:10:18;7.80;;;7.03;;
5967;SDS011;3010;51.028;4.170;2022-07-06T01:12:45;8.50;;;7.03;;
5967;SDS011;3010;51.028;4.170;2022-07-06T01:15:12;7.10;;;6.50;;
5967;SDS011;3010;51.028;4.170;2022-07-06T01:17:41;7.30;;;6.67;;
5967;SDS011;3010;51.028;4.170;2022-07-06T01:20:14;8.00;;;7.10;;
5967;SDS011;3010;51.028;4.170;2022-07-06T01:22:40;8.17;;;7.33;;
5967;SDS011;3010;51.028;4.170;2022-07-06T01:25:06;9.70;;;7.40;;
5967;SDS011;3010;51.028;4.170;2022-07-06T01:27:36;8.70;;;7.90;;
5967;SDS011;3010;51.028;4.170;2022-07-06T01:30:02;8.73;;;7.73;;
5967;SDS011;3010;51.028;4.170;2022-07-06T01:32:29;8.20;;;7.50;;
5967;SDS011;3010;51.028;4.170;2022-07-06T01:34:55;11.73;;;8.47;;
5967;SDS011;3010;51.028;4.170;2022-07-06T01:37:22;8.80;;;8.10;;
5967;SDS011;3010;51.028;4.170;2022-07-06T01:39:48;9.23;;;7.73;;
5967;SDS011;3010;51.028;4.170;2022-07-06T01:42:15;8.30;;;7.50;;
5967;SDS011;3010;51.028;4.170;2022-07-06T01:44:42;9.93;;;7.80;;
5967;SDS011;3010;51.028;4.170;2022-07-06T01:47:08;9.57;;;7.77;;
5967;SDS011;3010;51.028;4.170;2022-07-06T01:49:35;8.27;;;7.57;;
5967;SDS011;3010;51.028;4.170;2022-07-06T01:52:02;8.20;;;7.50;;
5967;SDS011;3010;51.028;4.170;2022-07-06T01:54:28;10.43;;;8.60;;
5967;SDS011;3010;51.028;4.170;2022-07-06T01:56:55;12.57;;;8.13;;
5967;SDS011;3010;51.028;4.170;2022-07-06T01:59:21;11.60;;;10.43;;
5967;SDS011;3010;51.028;4.170;2022-07-06T02:01:48;10.40;;;9.10;;
5967;SDS011;3010;51.028;4.170;2022-07-06T02:04:14;11.00;;;8.93;;
5967;SDS011;3010;51.028;4.170;2022-07-06T02:06:41;10.27;;;9.27;;
5967;SDS011;3010;51.028;4.170;2022-07-06T02:09:07;9.93;;;8.77;;
5967;SDS011;3010;51.028;4.170;2022-07-06T02:11:34;10.13;;;9.17;;
5967;SDS011;3010;51.028;4.170;2022-07-06T02:14:01;9.67;;;8.67;;
5967;SDS011;3010;51.028;4.170;2022-07-06T02:16:27;9.03;;;8.20;;
5967;SDS011;3010;51.028;4.170;2022-07-06T02:18:54;9.67;;;7.80;;
5967;SDS011;3010;51.028;4.170;2022-07-06T02:21:20;12.00;;;8.73;;
5967;SDS011;3010;51.028;4.170;2022-07-06T02:23:47;11.63;;;7.90;;
5967;SDS011;3010;51.028;4.170;2022-07-06T02:26:14;8.50;;;7.63;;
5967;SDS011;3010;51.028;4.170;2022-07-06T02:28:40;12.17;;;7.93;;
5967;SDS011;3010;51.028;4.170;2022-07-06T02:31:07;8.23;;;7.53;;
5967;SDS011;3010;51.028;4.170;2022-07-06T02:33:33;10.75;;;9.65;;
5967;SDS011;3010;51.028;4.170;2022-07-06T02:36:00;9.87;;;8.83;;
5967;SDS011;3010;51.028;4.170;2022-07-06T02:38:27;10.00;;;8.47;;
5967;SDS011;3010;51.028;4.170;2022-07-06T02:40:53;8.97;;;8.00;;
5967;SDS011;3010;51.028;4.170;2022-07-06T02:43:20;9.80;;;8.33;;
5967;SDS011;3010;51.028;4.170;2022-07-06T02:45:46;10.50;;;8.63;;
5967;SDS011;3010;51.028;4.170;2022-07-06T02:48:13;11.03;;;9.40;;
5967;SDS011;3010;51.028;4.170;2022-07-06T02:50:39;9.73;;;8.30;;
5967;SDS011;3010;51.028;4.170;2022-07-06T02:53:06;10.97;;;9.57;;
5967;SDS011;3010;51.028;4.170;2022-07-06T02:55:33;9.37;;;8.37;;
5967;SDS011;3010;51.028;4.170;2022-07-06T02:57:59;11.07;;;9.80;;
5967;SDS011;3010;51.028;4.170;2022-07-06T03:00:26;10.52;;;9.50;;
5967;SDS011;3010;51.028;4.170;2022-07-06T03:02:52;10.73;;;9.60;;
5967;SDS011;3010;51.028;4.170;2022-07-06T03:05:19;10.33;;;7.97;;
5967;SDS011;3010;51.028;4.170;2022-07-06T03:07:46;12.27;;;8.50;;
5967;SDS011;3010;51.028;4.170;2022-07-06T03:10:12;8.80;;;7.80;;
5967;SDS011;3010;51.028;4.170;2022-07-06T03:12:39;15.47;;;8.10;;
5967;SDS011;3010;51.028;4.170;2022-07-06T03:15:06;9.53;;;7.93;;
5967;SDS011;3010;51.028;4.170;2022-07-06T03:17:32;8.10;;;7.40;;
5967;SDS011;3010;51.028;4.170;2022-07-06T03:19:59;8.60;;;7.77;;
5967;SDS011;3010;51.028;4.170;2022-07-06T03:22:25;8.57;;;7.73;;
5967;SDS011;3010;51.028;4.170;2022-07-06T03:24:52;9.67;;;8.30;;
5967;SDS011;3010;51.028;4.170;2022-07-06T03:27:18;10.00;;;8.07;;
5967;SDS011;3010;51.028;4.170;2022-07-06T03:29:45;10.43;;;8.07;;
5967;SDS011;3010;51.028;4.170;2022-07-06T03:32:12;9.90;;;7.30;;
5967;SDS011;3010;51.028;4.170;2022-07-06T03:34:38;9.60;;;7.93;;
5967;SDS011;3010;51.028;4.170;2022-07-06T03:37:05;10.23;;;8.77;;
5967;SDS011;3010;51.028;4.170;2022-07-06T03:39:31;8.63;;;7.80;;
5967;SDS011;3010;51.028;4.170;2022-07-06T03:41:59;9.83;;;7.60;;
5967;SDS011;3010;51.028;4.170;2022-07-06T03:44:25;8.00;;;7.30;;
5967;SDS011;3010;51.028;4.170;2022-07-06T03:46:51;8.70;;;7.80;;
5967;SDS011;3010;51.028;4.170;2022-07-06T03:49:18;8.90;;;8.00;;
5967;SDS011;3010;51.028;4.170;2022-07-06T03:51:44;10.57;;;8.00;;
5967;SDS011;3010;51.028;4.170;2022-07-06T03:54:11;12.17;;;7.20;;
5967;SDS011;3010;51.028;4.170;2022-07-06T03:56:38;8.33;;;7.63;;
5967;SDS011;3010;51.028;4.170;2022-07-06T03:59:04;9.13;;;7.93;;
5967;SDS011;3010;51.028;4.170;2022-07-06T04:01:31;10.73;;;9.20;;
5967;SDS011;3010;51.028;4.170;2022-07-06T04:03:57;10.17;;;8.67;;
5967;SDS011;3010;51.028;4.170;2022-07-06T04:06:24;9.00;;;7.63;;
5967;SDS011;3010;51.028;4.170;2022-07-06T04:08:50;8.40;;;7.47;;
5967;SDS011;3010;51.028;4.170;2022-07-06T04:11:17;10.70;;;9.20;;
5967;SDS011;3010;51.028;4.170;2022-07-06T04:13:44;9.60;;;8.60;;
5967;SDS011;3010;51.028;4.170;2022-07-06T04:16:10;10.03;;;9.13;;
5967;SDS011;3010;51.028;4.170;2022-07-06T04:18:37;11.33;;;8.30;;
5967;SDS011;3010;51.028;4.170;2022-07-06T04:21:03;11.13;;;9.10;;
5967;SDS011;3010;51.028;4.170;2022-07-06T04:23:30;11.57;;;7.90;;
5967;SDS011;3010;51.028;4.170;2022-07-06T04:25:57;7.37;;;6.80;;
5967;SDS011;3010;51.028;4.170;2022-07-06T04:28:23;10.23;;;8.03;;
5967;SDS011;3010;51.028;4.170;2022-07-06T04:30:50;11.93;;;8.20;;
5967;SDS011;3010;51.028;4.170;2022-07-06T04:33:16;11.83;;;8.10;;
5967;SDS011;3010;51.028;4.170;2022-07-06T04:35:43;9.23;;;8.30;;
5967;SDS011;3010;51.028;4.170;2022-07-06T04:38:09;10.87;;;8.03;;
5967;SDS011;3010;51.028;4.170;2022-07-06T04:40:36;10.17;;;9.20;;
5967;SDS011;3010;51.028;4.170;2022-07-06T04:43:03;9.97;;;8.97;;
5967;SDS011;3010;51.028;4.170;2022-07-06T04:45:29;8.70;;;7.80;;
5967;SDS011;3010;51.028;4.170;2022-07-06T04:47:56;10.17;;;9.10;;
5967;SDS011;3010;51.028;4.170;2022-07-06T04:50:22;9.83;;;8.83;;
5967;SDS011;3010;51.028;4.170;2022-07-06T04:52:49;13.73;;;8.60;;
5967;SDS011;3010;51.028;4.170;2022-07-06T04:55:16;10.90;;;8.53;;
5967;SDS011;3010;51.028;4.170;2022-07-06T04:57:42;10.90;;;8.47;;
5967;SDS011;3010;51.028;4.170;2022-07-06T05:00:09;9.20;;;8.37;;
5967;SDS011;3010;51.028;4.170;2022-07-06T05:02:36;10.03;;;8.70;;
5967;SDS011;3010;51.028;4.170;2022-07-06T05:05:02;10.43;;;9.03;;
5967;SDS011;3010;51.028;4.170;2022-07-06T05:07:29;12.00;;;9.10;;
5967;SDS011;3010;51.028;4.170;2022-07-06T05:09:55;11.20;;;9.33;;
5967;SDS011;3010;51.028;4.170;2022-07-06T05:12:22;13.27;;;8.40;;
5967;SDS011;3010;51.028;4.170;2022-07-06T05:14:48;10.07;;;8.97;;
5967;SDS011;3010;51.028;4.170;2022-07-06T05:17:15;14.60;;;8.80;;
5967;SDS011;3010;51.028;4.170;2022-07-06T05:19:42;10.63;;;9.53;;
5967;SDS011;3010;51.028;4.170;2022-07-06T05:22:08;10.97;;;9.57;;
5967;SDS011;3010;51.028;4.170;2022-07-06T05:24:35;9.90;;;8.77;;
5967;SDS011;3010;51.028;4.170;2022-07-06T05:27:01;10.40;;;8.37;;
5967;SDS011;3010;51.028;4.170;2022-07-06T05:29:28;8.97;;;8.07;;
5967;SDS011;3010;51.028;4.170;2022-07-06T05:31:55;9.77;;;8.87;;
5967;SDS011;3010;51.028;4.170;2022-07-06T05:34:21;12.30;;;8.73;;
5967;SDS011;3010;51.028;4.170;2022-07-06T05:36:48;9.50;;;8.50;;
5967;SDS011;3010;51.028;4.170;2022-07-06T05:39:14;9.23;;;8.33;;
5967;SDS011;3010;51.028;4.170;2022-07-06T05:41:41;12.03;;;8.53;;
5967;SDS011;3010;51.028;4.170;2022-07-06T05:44:08;10.60;;;9.20;;
5967;SDS011;3010;51.028;4.170;2022-07-06T05:46:34;12.90;;;8.87;;
5967;SDS011;3010;51.028;4.170;2022-07-06T05:49:01;11.67;;;9.00;;
5967;SDS011;3010;51.028;4.170;2022-07-06T05:51:45;9.10;;;8.20;;
5967;SDS011;3010;51.028;4.170;2022-07-06T05:54:12;10.83;;;8.90;;
5967;SDS011;3010;51.028;4.170;2022-07-06T05:56:39;12.40;;;9.70;;
5967;SDS011;3010;51.028;4.170;2022-07-06T05:59:05;9.50;;;8.57;;
5967;SDS011;3010;51.028;4.170;2022-07-06T06:01:32;9.27;;;8.50;;
5967;SDS011;3010;51.028;4.170;2022-07-06T06:03:58;13.87;;;9.33;;
5967;SDS011;3010;51.028;4.170;2022-07-06T06:06:25;9.87;;;8.87;;
5967;SDS011;3010;51.028;4.170;2022-07-06T06:08:52;9.50;;;8.10;;
5967;SDS011;3010;51.028;4.170;2022-07-06T06:11:18;11.67;;;8.60;;
5967;SDS011;3010;51.028;4.170;2022-07-06T06:13:45;10.27;;;7.97;;
5967;SDS011;3010;51.028;4.170;2022-07-06T06:16:11;11.03;;;8.40;;
5967;SDS011;3010;51.028;4.170;2022-07-06T06:18:38;11.13;;;8.40;;
5967;SDS011;3010;51.028;4.170;2022-07-06T06:21:04;10.70;;;8.30;;
5967;SDS011;3010;51.028;4.170;2022-07-06T06:23:31;8.47;;;7.77;;
5967;SDS011;3010;51.028;4.170;2022-07-06T06:25:58;10.67;;;8.13;;
5967;SDS011;3010;51.028;4.170;2022-07-06T06:28:24;12.37;;;7.93;;
5967;SDS011;3010;51.028;4.170;2022-07-06T06:30:51;11.83;;;7.97;;
5967;SDS011;3010;51.028;4.170;2022-07-06T06:33:18;9.27;;;8.30;;
5967;SDS011;3010;51.028;4.170;2022-07-06T06:35:45;9.57;;;8.23;;
5967;SDS011;3010;51.028;4.170;2022-07-06T06:38:13;11.67;;;8.20;;
5967;SDS011;3010;51.028;4.170;2022-07-06T06:40:40;8.87;;;8.20;;
5967;SDS011;3010;51.028;4.170;2022-07-06T06:43:06;9.23;;;8.43;;
5967;SDS011;3010;51.028;4.170;2022-07-06T06:45:33;11.33;;;8.33;;
5967;SDS011;3010;51.028;4.170;2022-07-06T06:47:59;10.90;;;8.20;;
5967;SDS011;3010;51.028;4.170;2022-07-06T06:50:26;10.17;;;9.10;;
5967;SDS011;3010;51.028;4.170;2022-07-06T06:52:53;11.83;;;8.13;;
5967;SDS011;3010;51.028;4.170;2022-07-06T06:55:19;9.20;;;8.30;;
5967;SDS011;3010;51.028;4.170;2022-07-06T06:57:46;9.20;;;8.30;;
5967;SDS011;3010;51.028;4.170;2022-07-06T07:00:12;9.37;;;8.23;;
5967;SDS011;3010;51.028;4.170;2022-07-06T07:02:39;8.63;;;7.57;;
5967;SDS011;3010;51.028;4.170;2022-07-06T07:05:06;8.50;;;7.17;;
5967;SDS011;3010;51.028;4.170;2022-07-06T07:07:32;8.73;;;7.55;;
5967;SDS011;3010;51.028;4.170;2022-07-06T07:09:59;9.57;;;7.43;;
5967;SDS011;3010;51.028;4.170;2022-07-06T07:12:25;9.23;;;6.57;;
5967;SDS011;3010;51.028;4.170;2022-07-06T07:14:52;8.30;;;7.30;;
5967;SDS011;3010;51.028;4.170;2022-07-06T07:17:18;7.80;;;7.10;;
5967;SDS011;3010;51.028;4.170;2022-07-06T07:19:45;8.27;;;7.43;;
5967;SDS011;3010;51.028;4.170;2022-07-06T07:22:12;8.40;;;7.43;;
5967;SDS011;3010;51.028;4.170;2022-07-06T07:24:38;9.60;;;6.73;;
5967;SDS011;3010;51.028;4.170;2022-07-06T07:27:05;9.27;;;6.95;;
5967;SDS011;3010;51.028;4.170;2022-07-06T07:29:31;11.13;;;6.43;;
5967;SDS011;3010;51.028;4.170;2022-07-06T07:31:58;7.17;;;6.33;;
5967;SDS011;3010;51.028;4.170;2022-07-06T07:34:25;6.50;;;5.80;;
5967;SDS011;3010;51.028;4.170;2022-07-06T07:36:51;8.97;;;6.50;;
5967;SDS011;3010;51.028;4.170;2022-07-06T07:39:18;7.33;;;6.47;;
5967;SDS011;3010;51.028;4.170;2022-07-06T07:41:44;7.67;;;6.53;;
5967;SDS011;3010;51.028;4.170;2022-07-06T07:44:11;7.27;;;6.20;;
5967;SDS011;3010;51.028;4.170;2022-07-06T07:46:37;6.53;;;5.93;;
5967;SDS011;3010;51.028;4.170;2022-07-06T07:49:04;9.70;;;5.80;;
5967;SDS011;3010;51.028;4.170;2022-07-06T07:51:31;6.47;;;6.00;;
5967;SDS011;3010;51.028;4.170;2022-07-06T07:53:57;7.28;;;5.93;;
5967;SDS011;3010;51.028;4.170;2022-07-06T07:56:24;6.20;;;5.10;;
5967;SDS011;3010;51.028;4.170;2022-07-06T07:58:50;7.57;;;4.93;;
5967;SDS011;3010;51.028;4.170;2022-07-06T08:01:17;7.67;;;4.60;;
5967;SDS011;3010;51.028;4.170;2022-07-06T08:03:44;8.27;;;4.93;;
5967;SDS011;3010;51.028;4.170;2022-07-06T08:06:10;5.97;;;3.70;;
5967;SDS011;3010;51.028;4.170;2022-07-06T08:08:37;5.78;;;4.12;;
5967;SDS011;3010;51.028;4.170;2022-07-06T08:11:03;4.87;;;4.27;;
5967;SDS011;3010;51.028;4.170;2022-07-06T08:13:30;4.63;;;4.03;;
5967;SDS011;3010;51.028;4.170;2022-07-06T08:15:56;3.63;;;3.33;;
5967;SDS011;3010;51.028;4.170;2022-07-06T08:18:23;4.00;;;3.30;;
5967;SDS011;3010;51.028;4.170;2022-07-06T08:20:50;9.40;;;4.10;;
5967;SDS011;3010;51.028;4.170;2022-07-06T08:23:16;7.27;;;4.70;;
5967;SDS011;3010;51.028;4.170;2022-07-06T08:25:43;4.17;;;3.87;;
5967;SDS011;3010;51.028;4.170;2022-07-06T08:28:09;5.97;;;4.07;;
5967;SDS011;3010;51.028;4.170;2022-07-06T08:30:36;5.73;;;4.10;;
5967;SDS011;3010;51.028;4.170;2022-07-06T08:33:03;7.93;;;5.23;;
5967;SDS011;3010;51.028;4.170;2022-07-06T08:35:29;9.40;;;6.20;;
5967;SDS011;3010;51.028;4.170;2022-07-06T08:37:56;12.48;;;9.52;;
5967;SDS011;3010;51.028;4.170;2022-07-06T08:40:22;11.23;;;8.30;;
5967;SDS011;3010;51.028;4.170;2022-07-06T08:42:50;9.13;;;7.85;;
5967;SDS011;3010;51.028;4.170;2022-07-06T08:45:16;14.97;;;9.20;;
5967;SDS011;3010;51.028;4.170;2022-07-06T08:47:42;10.20;;;8.45;;
5967;SDS011;3010;51.028;4.170;2022-07-06T08:50:10;10.00;;;7.30;;
5967;SDS011;3010;51.028;4.170;2022-07-06T08:52:36;9.73;;;7.90;;
5967;SDS011;3010;51.028;4.170;2022-07-06T08:55:03;10.67;;;8.17;;
5967;SDS011;3010;51.028;4.170;2022-07-06T08:57:30;8.80;;;7.90;;
5967;SDS011;3010;51.028;4.170;2022-07-06T08:59:56;7.43;;;6.70;;
5967;SDS011;3010;51.028;4.170;2022-07-06T09:02:23;9.23;;;7.62;;
5967;SDS011;3010;51.028;4.170;2022-07-06T09:04:50;7.67;;;6.87;;
5967;SDS011;3010;51.028;4.170;2022-07-06T09:07:17;10.43;;;7.23;;
5967;SDS011;3010;51.028;4.170;2022-07-06T09:09:44;9.05;;;7.50;;
5967;SDS011;3010;51.028;4.170;2022-07-06T09:12:11;9.13;;;7.03;;
5967;SDS011;3010;51.028;4.170;2022-07-06T09:14:37;7.93;;;7.03;;
5967;SDS011;3010;51.028;4.170;2022-07-06T09:17:05;11.00;;;7.47;;
5967;SDS011;3010;51.028;4.170;2022-07-06T09:19:30;11.90;;;7.30;;
5967;SDS011;3010;51.028;4.170;2022-07-06T09:21:57;12.43;;;8.17;;
5967;SDS011;3010;51.028;4.170;2022-07-06T09:24:23;15.20;;;9.95;;
5967;SDS011;3010;51.028;4.170;2022-07-06T09:26:50;9.10;;;8.20;;
5967;SDS011;3010;51.028;4.170;2022-07-06T09:29:16;10.90;;;8.90;;
5967;SDS011;3010;51.028;4.170;2022-07-06T09:31:44;10.30;;;8.33;;
5967;SDS011;3010;51.028;4.170;2022-07-06T09:34:09;10.23;;;7.85;;
5967;SDS011;3010;51.028;4.170;2022-07-06T09:36:37;10.07;;;8.50;;
5967;SDS011;3010;51.028;4.170;2022-07-06T09:41:53;9.40;;;7.03;;
5967;SDS011;3010;51.028;4.170;2022-07-06T09:44:24;9.70;;;7.07;;
5967;SDS011;3010;51.028;4.170;2022-07-06T09:46:52;8.00;;;7.33;;
5967;SDS011;3010;51.028;4.170;2022-07-06T09:49:21;7.60;;;6.90;;
5967;SDS011;3010;51.028;4.170;2022-07-06T09:51:48;9.60;;;7.03;;
5967;SDS011;3010;51.028;4.170;2022-07-06T09:54:14;9.57;;;6.83;;
5967;SDS011;3010;51.028;4.170;2022-07-06T09:56:41;6.93;;;6.23;;
5967;SDS011;3010;51.028;4.170;2022-07-06T09:59:13;7.20;;;6.60;;
5967;SDS011;3010;51.028;4.170;2022-07-06T10:01:42;7.83;;;5.87;;
5967;SDS011;3010;51.028;4.170;2022-07-06T10:04:11;8.47;;;5.00;;
5967;SDS011;3010;51.028;4.170;2022-07-06T10:06:37;5.63;;;4.83;;
5967;SDS011;3010;51.028;4.170;2022-07-06T10:09:07;6.90;;;5.40;;
5967;SDS011;3010;51.028;4.170;2022-07-06T10:11:56;4.37;;;4.07;;
5967;SDS011;3010;51.028;4.170;2022-07-06T10:14:06;9.57;;;6.70;;
5967;SDS011;3010;51.028;4.170;2022-07-06T10:16:33;10.67;;;6.87;;
5967;SDS011;3010;51.028;4.170;2022-07-06T10:18:58;6.43;;;5.80;;
5967;SDS011;3010;51.028;4.170;2022-07-06T10:21:25;6.57;;;5.47;;
5967;SDS011;3010;51.028;4.170;2022-07-06T10:23:52;5.53;;;5.10;;
5967;SDS011;3010;51.028;4.170;2022-07-06T10:26:18;5.77;;;4.80;;
5967;SDS011;3010;51.028;4.170;2022-07-06T10:28:46;5.97;;;5.50;;
5967;SDS011;3010;51.028;4.170;2022-07-06T10:31:14;6.40;;;5.80;;
5967;SDS011;3010;51.028;4.170;2022-07-06T10:33:39;8.57;;;6.20;;
5967;SDS011;3010;51.028;4.170;2022-07-06T10:36:06;7.80;;;6.20;;
5967;SDS011;3010;51.028;4.170;2022-07-06T10:38:33;5.47;;;4.83;;
5967;SDS011;3010;51.028;4.170;2022-07-06T10:41:05;8.13;;;5.83;;
5967;SDS011;3010;51.028;4.170;2022-07-06T10:43:38;4.97;;;4.50;;
5967;SDS011;3010;51.028;4.170;2022-07-06T10:46:12;5.70;;;5.20;;
5967;SDS011;3010;51.028;4.170;2022-07-06T10:48:43;7.37;;;5.67;;
5967;SDS011;3010;51.028;4.170;2022-07-06T10:51:10;5.40;;;4.90;;
5967;SDS011;3010;51.028;4.170;2022-07-06T10:53:36;5.62;;;4.47;;
5967;SDS011;3010;51.028;4.170;2022-07-06T10:56:05;5.37;;;3.93;;
5967;SDS011;3010;51.028;4.170;2022-07-06T10:58:34;4.97;;;4.57;;
5967;SDS011;3010;51.028;4.170;2022-07-06T11:01:09;4.30;;;3.90;;
5967;SDS011;3010;51.028;4.170;2022-07-06T11:03:36;4.57;;;4.17;;
5967;SDS011;3010;51.028;4.170;2022-07-06T11:06:05;7.57;;;5.00;;
5967;SDS011;3010;51.028;4.170;2022-07-06T11:11:22;5.10;;;3.70;;
5967;SDS011;3010;51.028;4.170;2022-07-06T11:16:17;5.07;;;3.90;;
5967;SDS011;3010;51.028;4.170;2022-07-06T11:18:58;3.73;;;3.40;;
5967;SDS011;3010;51.028;4.170;2022-07-06T11:21:20;5.07;;;4.27;;
5967;SDS011;3010;51.028;4.170;2022-07-06T11:23:50;4.77;;;4.20;;
5967;SDS011;3010;51.028;4.170;2022-07-06T11:26:17;6.23;;;4.03;;
5967;SDS011;3010;51.028;4.170;2022-07-06T11:28:46;3.83;;;3.53;;
5967;SDS011;3010;51.028;4.170;2022-07-06T11:31:13;4.85;;;3.70;;
5967;SDS011;3010;51.028;4.170;2022-07-06T11:33:39;3.30;;;3.10;;
5967;SDS011;3010;51.028;4.170;2022-07-06T11:36:15;3.37;;;3.10;;
5967;SDS011;3010;51.028;4.170;2022-07-06T11:38:41;2.97;;;2.77;;
5967;SDS011;3010;51.028;4.170;2022-07-06T11:41:08;4.00;;;3.30;;
5967;SDS011;3010;51.028;4.170;2022-07-06T11:43:34;5.17;;;3.23;;
5967;SDS011;3010;51.028;4.170;2022-07-06T11:46:01;4.37;;;3.37;;
5967;SDS011;3010;51.028;4.170;2022-07-06T11:48:27;4.27;;;3.30;;
5967;SDS011;3010;51.028;4.170;2022-07-06T11:50:57;3.97;;;2.73;;
5967;SDS011;3010;51.028;4.170;2022-07-06T11:53:23;5.57;;;3.40;;
5967;SDS011;3010;51.028;4.170;2022-07-06T11:55:50;4.00;;;2.77;;
5967;SDS011;3010;51.028;4.170;2022-07-06T11:58:18;6.93;;;3.67;;
5967;SDS011;3010;51.028;4.170;2022-07-06T12:00:43;2.93;;;2.60;;
5967;SDS011;3010;51.028;4.170;2022-07-06T12:03:10;4.13;;;2.97;;
5967;SDS011;3010;51.028;4.170;2022-07-06T12:05:36;5.53;;;2.57;;
5967;SDS011;3010;51.028;4.170;2022-07-06T12:08:04;2.50;;;2.13;;
5967;SDS011;3010;51.028;4.170;2022-07-06T12:10:32;4.10;;;2.50;;
5967;SDS011;3010;51.028;4.170;2022-07-06T12:13:02;3.90;;;2.60;;
5967;SDS011;3010;51.028;4.170;2022-07-06T12:15:28;5.00;;;2.40;;
5967;SDS011;3010;51.028;4.170;2022-07-06T12:17:55;3.10;;;2.50;;
5967;SDS011;3010;51.028;4.170;2022-07-06T12:20:21;3.43;;;2.17;;
5967;SDS011;3010;51.028;4.170;2022-07-06T12:22:48;2.43;;;1.90;;
5967;SDS011;3010;51.028;4.170;2022-07-06T12:25:28;2.60;;;2.27;;
5967;SDS011;3010;51.028;4.170;2022-07-06T12:27:41;3.53;;;2.40;;
5967;SDS011;3010;51.028;4.170;2022-07-06T12:30:08;5.37;;;2.40;;
5967;SDS011;3010;51.028;4.170;2022-07-06T12:32:34;3.12;;;2.20;;
5967;SDS011;3010;51.028;4.170;2022-07-06T12:35:04;2.73;;;2.10;;
5967;SDS011;3010;51.028;4.170;2022-07-06T12:37:33;3.30;;;2.00;;
5967;SDS011;3010;51.028;4.170;2022-07-06T12:39:59;2.73;;;2.50;;
5967;SDS011;3010;51.028;4.170;2022-07-06T12:42:26;5.30;;;3.62;;
5967;SDS011;3010;51.028;4.170;2022-07-06T12:44:53;16.97;;;10.60;;
5967;SDS011;3010;51.028;4.170;2022-07-06T12:47:23;4.40;;;2.70;;
5967;SDS011;3010;51.028;4.170;2022-07-06T12:50:03;4.10;;;2.80;;
5967;SDS011;3010;51.028;4.170;2022-07-06T12:52:18;2.73;;;2.10;;
5967;SDS011;3010;51.028;4.170;2022-07-06T12:54:46;3.10;;;2.50;;
5967;SDS011;3010;51.028;4.170;2022-07-06T12:57:12;2.63;;;2.50;;
5967;SDS011;3010;51.028;4.170;2022-07-06T12:59:45;6.75;;;2.42;;
5967;SDS011;3010;51.028;4.170;2022-07-06T13:02:20;2.47;;;2.37;;
5967;SDS011;3010;51.028;4.170;2022-07-06T13:04:43;3.53;;;2.33;;
5967;SDS011;3010;51.028;4.170;2022-07-06T13:07:17;3.40;;;2.30;;
5967;SDS011;3010;51.028;4.170;2022-07-06T13:09:36;3.60;;;2.30;;
5967;SDS011;3010;51.028;4.170;2022-07-06T13:12:03;5.13;;;2.43;;
5967;SDS011;3010;51.028;4.170;2022-07-06T13:14:29;2.63;;;2.43;;
5967;SDS011;3010;51.028;4.170;2022-07-06T13:16:56;4.07;;;2.10;;
5967;SDS011;3010;51.028;4.170;2022-07-06T13:19:22;3.43;;;1.90;;
5967;SDS011;3010;51.028;4.170;2022-07-06T13:21:49;2.20;;;2.00;;
5967;SDS011;3010;51.028;4.170;2022-07-06T13:24:16;1.90;;;1.80;;
5967;SDS011;3010;51.028;4.170;2022-07-06T13:26:42;2.30;;;2.17;;
5967;SDS011;3010;51.028;4.170;2022-07-06T13:29:09;2.73;;;2.03;;
5967;SDS011;3010;51.028;4.170;2022-07-06T13:31:35;3.07;;;2.40;;
5967;SDS011;3010;51.028;4.170;2022-07-06T13:34:02;2.63;;;2.30;;
5967;SDS011;3010;51.028;4.170;2022-07-06T13:36:29;2.87;;;2.20;;
5967;SDS011;3010;51.028;4.170;2022-07-06T13:38:55;2.33;;;2.13;;
5967;SDS011;3010;51.028;4.170;2022-07-06T13:41:22;2.63;;;1.87;;
5967;SDS011;3010;51.028;4.170;2022-07-06T13:43:49;2.83;;;1.87;;
5967;SDS011;3010;51.028;4.170;2022-07-06T13:46:15;2.17;;;2.07;;
5967;SDS011;3010;51.028;4.170;2022-07-06T13:48:42;2.40;;;1.90;;
5967;SDS011;3010;51.028;4.170;2022-07-06T13:51:08;2.10;;;2.00;;
5967;SDS011;3010;51.028;4.170;2022-07-06T13:53:35;3.78;;;1.95;;
5967;SDS011;3010;51.028;4.170;2022-07-06T13:56:02;3.23;;;2.13;;
5967;SDS011;3010;51.028;4.170;2022-07-06T13:58:28;2.37;;;2.10;;
5967;SDS011;3010;51.028;4.170;2022-07-06T14:00:55;2.47;;;1.80;;
5967;SDS011;3010;51.028;4.170;2022-07-06T14:03:21;1.95;;;1.85;;
5967;SDS011;3010;51.028;4.170;2022-07-06T14:05:48;3.43;;;2.20;;
5967;SDS011;3010;51.028;4.170;2022-07-06T14:08:14;2.93;;;1.80;;
5967;SDS011;3010;51.028;4.170;2022-07-06T14:10:41;4.80;;;2.33;;
5967;SDS011;3010;51.028;4.170;2022-07-06T14:13:08;2.40;;;2.30;;
5967;SDS011;3010;51.028;4.170;2022-07-06T14:15:34;3.83;;;2.30;;
5967;SDS011;3010;51.028;4.170;2022-07-06T14:18:01;3.33;;;2.20;;
5967;SDS011;3010;51.028;4.170;2022-07-06T14:20:27;4.43;;;2.60;;
5967;SDS011;3010;51.028;4.170;2022-07-06T14:22:54;3.03;;;2.00;;
5967;SDS011;3010;51.028;4.170;2022-07-06T14:25:20;3.30;;;2.30;;
5967;SDS011;3010;51.028;4.170;2022-07-06T14:27:47;5.33;;;2.10;;
5967;SDS011;3010;51.028;4.170;2022-07-06T14:30:14;2.43;;;2.20;;
5967;SDS011;3010;51.028;4.170;2022-07-06T14:32:40;5.13;;;3.77;;
5967;SDS011;3010;51.028;4.170;2022-07-06T14:35:07;4.15;;;2.50;;
5967;SDS011;3010;51.028;4.170;2022-07-06T14:37:34;2.33;;;2.13;;
5967;SDS011;3010;51.028;4.170;2022-07-06T14:40:00;3.73;;;2.20;;
5967;SDS011;3010;51.028;4.170;2022-07-06T14:42:27;4.20;;;2.80;;
5967;SDS011;3010;51.028;4.170;2022-07-06T14:44:53;3.33;;;2.70;;
5967;SDS011;3010;51.028;4.170;2022-07-06T14:47:20;3.13;;;2.07;;
5967;SDS011;3010;51.028;4.170;2022-07-06T14:49:46;3.57;;;2.40;;
5967;SDS011;3010;51.028;4.170;2022-07-06T14:52:13;3.97;;;2.27;;
5967;SDS011;3010;51.028;4.170;2022-07-06T14:54:40;2.70;;;2.30;;
5967;SDS011;3010;51.028;4.170;2022-07-06T14:57:06;2.78;;;2.58;;
5967;SDS011;3010;51.028;4.170;2022-07-06T14:59:33;3.28;;;2.85;;
5967;SDS011;3010;51.028;4.170;2022-07-06T15:01:59;2.93;;;2.60;;
5967;SDS011;3010;51.028;4.170;2022-07-06T15:04:26;2.27;;;2.07;;
5967;SDS011;3010;51.028;4.170;2022-07-06T15:06:53;3.17;;;2.30;;
5967;SDS011;3010;51.028;4.170;2022-07-06T15:09:19;4.93;;;2.67;;
5967;SDS011;3010;51.028;4.170;2022-07-06T15:11:46;2.37;;;2.17;;
5967;SDS011;3010;51.028;4.170;2022-07-06T15:14:12;4.03;;;3.20;;
5967;SDS011;3010;51.028;4.170;2022-07-06T15:16:39;6.37;;;2.87;;
5967;SDS011;3010;51.028;4.170;2022-07-06T15:19:06;5.93;;;3.20;;